Time;durP1;ratioP1;P1;durP2;ratioP2;P2;SDS_P1;SDS_P2;PMS_P1;PMS_P2;Temp;Humidity;BMP_temperature;BMP_pressure;BME280_temperature;BME280_humidity;BME280_pressure;Samples;Min_cycle;Max_cycle;Signal;HPM_P1;HPM_P2
2022/07/23 00:02:44;;;;;;;0.40;0.05;;;;;;;15.50;100.00;101920.63;10498107;28;20483;-79
2022/07/23 00:07:46;;;;;;;0.10;0.10;;;;;;;15.77;100.00;101906.44;10497567;28;20052;-78
2022/07/23 00:12:48;;;;;;;0.10;0.10;;;;;;;15.66;100.00;101918.34;10491084;28;20110;-78
2022/07/23 00:17:52;;;;;;;0.03;0.00;;;;;;;15.64;100.00;101904.44;10491720;28;20128;-79
2022/07/23 00:22:55;;;;;;;0.70;0.60;;;;;;;15.42;100.00;101908.28;10497074;28;20036;-78
2022/07/23 00:28:00;;;;;;;0.00;0.00;;;;;;;15.26;100.00;101904.47;10491225;28;20040;-78
2022/07/23 00:33:06;;;;;;;0.10;0.10;;;;;;;15.21;100.00;101892.28;10475960;28;20029;-79
2022/07/23 00:38:09;;;;;;;0.00;0.00;;;;;;;14.79;100.00;101903.38;10478599;28;20059;-79
2022/07/23 00:43:11;;;;;;;0.03;0.03;;;;;;;14.87;100.00;101901.88;10475649;28;20052;-78
2022/07/23 00:48:13;;;;;;;0.45;0.20;;;;;;;14.63;100.00;101914.22;10492924;28;20127;-78
2022/07/23 00:53:15;;;;;;;0.03;0.03;;;;;;;14.57;100.00;101905.41;10481847;28;20040;-78
2022/07/23 00:58:18;;;;;;;0.10;0.10;;;;;;;14.37;100.00;101917.84;10493322;28;20040;-79
2022/07/23 01:03:20;;;;;;;0.68;0.30;;;;;;;14.23;100.00;101911.44;10491670;28;20037;-78
2022/07/23 01:08:21;;;;;;;0.10;0.10;;;;;;;14.00;100.00;101905.63;10492942;28;20053;-78
2022/07/23 01:13:23;;;;;;;0.10;0.10;;;;;;;14.10;100.00;101886.91;10493404;28;20124;-79
2022/07/23 01:18:25;;;;;;;0.32;0.22;;;;;;;13.91;100.00;101895.91;10484757;28;20036;-78
2022/07/23 01:23:27;;;;;;;0.05;0.05;;;;;;;13.82;100.00;101901.69;10468451;28;20052;-78
2022/07/23 01:28:32;;;;;;;0.10;0.10;;;;;;;13.75;100.00;101895.47;10493749;28;20048;-79
2022/07/23 01:33:34;;;;;;;0.57;0.30;;;;;;;13.76;100.00;101898.91;10483246;28;20037;-79
2022/07/23 01:38:36;;;;;;;0.30;0.20;;;;;;;13.66;100.00;101899.50;10455510;28;20135;-78
2022/07/23 01:43:38;;;;;;;0.13;0.13;;;;;;;13.59;100.00;101899.28;10484491;28;20123;-79
2022/07/23 01:48:39;;;;;;;0.10;0.10;;;;;;;13.44;100.00;101898.88;10485144;28;20127;-79
2022/07/23 01:54:04;;;;;;;0.10;0.10;;;;;;;13.50;100.00;101893.88;10471959;28;20123;-79
2022/07/23 01:59:06;;;;;;;0.08;0.08;;;;;;;13.37;100.00;101891.69;10488751;28;20090;-79
2022/07/23 02:04:08;;;;;;;0.10;0.10;;;;;;;13.36;100.00;101885.66;10489387;28;20385;-78
2022/07/23 02:09:10;;;;;;;0.10;0.10;;;;;;;13.32;100.00;101882.09;10473201;28;20052;-78
2022/07/23 02:14:11;;;;;;;0.20;0.20;;;;;;;13.19;100.00;101877.38;10489946;28;20458;-78
2022/07/23 02:19:14;;;;;;;0.85;0.38;;;;;;;12.66;100.00;101886.06;10472252;28;20578;-79
2022/07/23 02:24:16;;;;;;;0.13;0.13;;;;;;;12.82;100.00;101871.91;10474069;28;20053;-78
2022/07/23 02:29:18;;;;;;;0.20;0.20;;;;;;;12.97;100.00;101881.88;10490870;28;20045;-79
2022/07/23 02:34:20;;;;;;;0.03;0.03;;;;;;;12.75;100.00;101879.44;10491059;28;20496;-79
2022/07/23 02:39:22;;;;;;;0.00;0.00;;;;;;;12.59;100.00;101899.63;10489941;28;20059;-78
2022/07/23 02:44:23;;;;;;;0.20;0.10;;;;;;;12.58;100.00;101886.66;10491015;28;20462;-78
2022/07/23 02:49:27;;;;;;;0.17;0.13;;;;;;;12.49;100.00;101879.44;10482888;28;20055;-79
2022/07/23 02:54:30;;;;;;;0.95;0.20;;;;;;;12.45;100.00;101881.03;10471131;28;20561;-79
2022/07/23 02:59:31;;;;;;;0.55;0.25;;;;;;;12.42;100.00;101882.66;10483035;28;20044;-78
2022/07/23 03:04:33;;;;;;;0.22;0.03;;;;;;;12.13;100.00;101892.84;10478707;28;20093;-78
2022/07/23 03:09:36;;;;;;;0.35;0.25;;;;;;;12.30;100.00;101881.41;10474569;28;20101;-78
2022/07/23 03:14:38;;;;;;;0.08;0.08;;;;;;;12.10;100.00;101885.88;10491645;28;20407;-78
2022/07/23 03:19:40;;;;;;;0.17;0.10;;;;;;;11.98;100.00;101898.38;10486993;28;20076;-78
2022/07/23 03:24:55;;;;;;;0.05;0.05;;;;;;;11.93;100.00;101889.53;10476052;28;20048;-78
2022/07/23 03:30:00;;;;;;;0.08;0.08;;;;;;;11.79;100.00;101894.19;10494544;28;20480;-78
2022/07/23 03:35:02;;;;;;;0.08;0.03;;;;;;;11.73;100.00;101900.00;10486705;28;20103;-79
2022/07/23 03:40:08;;;;;;;0.65;0.20;;;;;;;11.75;100.00;101891.50;10494797;28;20562;-78
2022/07/23 03:45:10;;;;;;;0.28;0.08;;;;;;;11.79;100.00;101897.66;10494835;28;20048;-78
2022/07/23 03:50:12;;;;;;;0.00;0.00;;;;;;;11.72;100.00;101901.72;10497504;28;20048;-78
2022/07/23 03:55:14;;;;;;;0.43;0.20;;;;;;;11.59;100.00;101914.97;10494835;28;20044;-78
2022/07/23 04:00:16;;;;;;;0.00;0.00;;;;;;;11.66;100.00;101916.94;10480503;28;20049;-79
2022/07/23 04:05:20;;;;;;;0.20;0.13;;;;;;;11.61;100.00;101905.59;10479808;28;20431;-78
2022/07/23 04:10:26;;;;;;;0.65;0.10;;;;;;;11.66;100.00;101911.78;10483796;28;20040;-78
2022/07/23 04:15:29;;;;;;;0.00;0.00;;;;;;;11.57;100.00;101921.78;10487889;28;20052;-78
2022/07/23 04:20:31;;;;;;;0.15;0.10;;;;;;;11.62;100.00;101920.25;10481877;28;20518;-78
2022/07/23 04:25:39;;;;;;;0.13;0.13;;;;;;;11.65;100.00;101917.81;10474020;28;20051;-78
2022/07/23 04:30:41;;;;;;;0.60;0.32;;;;;;;11.76;100.00;101918.22;10488637;28;20067;-78
2022/07/23 04:35:44;;;;;;;0.00;0.00;;;;;;;11.71;100.00;101928.34;10488869;28;20513;-78
2022/07/23 04:40:52;;;;;;;0.32;0.32;;;;;;;11.97;100.00;101936.22;10475413;28;20584;-79
2022/07/23 04:45:54;;;;;;;0.45;0.20;;;;;;;12.22;100.00;101931.94;10491429;28;20472;-78
2022/07/23 04:50:57;;;;;;;0.20;0.20;;;;;;;12.38;100.00;101926.50;10490539;28;20098;-78
2022/07/23 04:56:02;;;;;;;0.63;0.47;;;;;;;12.60;100.00;101927.22;10491647;28;20055;-79
2022/07/23 05:01:05;;;;;;;0.00;0.00;;;;;;;12.64;100.00;101942.00;10473396;28;20045;-79
2022/07/23 05:06:09;;;;;;;0.10;0.10;;;;;;;12.96;100.00;101946.47;10491807;28;20036;-78
2022/07/23 05:11:11;;;;;;;0.03;0.03;;;;;;;13.10;100.00;101934.00;10473179;28;20044;-79
2022/07/23 05:16:13;;;;;;;0.30;0.22;;;;;;;13.36;100.00;101936.56;10492674;28;20040;-79
2022/07/23 05:21:16;;;;;;;0.00;0.00;;;;;;;13.63;100.00;101952.94;10477694;28;20138;-78
2022/07/23 05:26:18;;;;;;;0.20;0.20;;;;;;;13.62;100.00;101956.38;10484596;28;20076;-78
2022/07/23 05:31:23;;;;;;;1.65;0.38;;;;;;;13.92;100.00;101955.50;10492254;28;20053;-79
2022/07/23 05:36:26;;;;;;;0.30;0.13;;;;;;;14.18;100.00;101990.78;10460351;28;20152;-78
2022/07/23 05:41:31;;;;;;;0.10;0.10;;;;;;;14.33;100.00;102042.19;10502127;28;20041;-79
2022/07/23 05:46:34;;;;;;;0.35;0.30;;;;;;;14.62;100.00;102042.13;10489483;28;20044;-79
2022/07/23 05:51:40;;;;;;;0.65;0.40;;;;;;;14.74;100.00;102047.66;10488295;28;20139;-79
2022/07/23 05:56:43;;;;;;;0.63;0.47;;;;;;;14.86;100.00;102042.81;10487976;28;20048;-79
2022/07/23 06:01:46;;;;;;;1.15;0.57;;;;;;;15.02;100.00;102043.19;10470216;28;20446;-79
2022/07/23 06:06:50;;;;;;;0.63;0.50;;;;;;;15.16;100.00;102020.22;10475653;28;20504;-79
2022/07/23 06:11:52;;;;;;;0.17;0.17;;;;;;;15.33;100.00;102020.59;10489776;28;20052;-80
2022/07/23 06:16:55;;;;;;;0.30;0.30;;;;;;;15.42;100.00;101981.88;10459731;28;20397;-79
2022/07/23 06:21:57;;;;;;;0.47;0.47;;;;;;;15.69;100.00;101985.94;10485030;28;20476;-79
2022/07/23 06:27:03;;;;;;;0.30;0.13;;;;;;;15.60;100.00;101980.56;10474390;28;20608;-79
2022/07/23 06:32:05;;;;;;;0.35;0.28;;;;;;;15.85;100.00;101972.47;10487978;28;20040;-79
2022/07/23 06:37:07;;;;;;;0.10;0.10;;;;;;;15.96;100.00;101966.63;10487024;28;20148;-79
2022/07/23 06:42:11;;;;;;;0.28;0.15;;;;;;;16.24;100.00;101974.97;10489440;28;20028;-80
2022/07/23 06:47:20;;;;;;;0.20;0.20;;;;;;;16.16;100.00;101967.00;10495104;28;20057;-79
2022/07/23 06:52:22;;;;;;;0.80;0.60;;;;;;;16.61;100.00;101960.06;10495509;28;20041;-79
2022/07/23 06:57:25;;;;;;;4.22;0.80;;;;;;;16.76;100.00;101954.22;10497626;28;20046;-79
2022/07/23 07:02:27;;;;;;;0.43;0.28;;;;;;;17.10;100.00;101962.66;10487698;28;20500;-79
2022/07/23 07:07:29;;;;;;;0.20;0.20;;;;;;;17.47;100.00;101951.88;10488028;28;20048;-79
2022/07/23 07:12:31;;;;;;;0.00;0.00;;;;;;;18.14;100.00;101951.91;10487698;28;20502;-79
2022/07/23 07:17:33;;;;;;;0.32;0.32;;;;;;;18.41;100.00;101953.06;10491361;28;20046;-79
2022/07/23 07:22:35;;;;;;;0.60;0.25;;;;;;;18.26;100.00;101953.78;10488105;28;20052;-80
2022/07/23 07:27:37;;;;;;;0.98;0.55;;;;;;;18.66;100.00;101956.75;10497117;28;20056;-79
2022/07/23 07:32:39;;;;;;;0.53;0.40;;;;;;;19.09;100.00;101952.81;10426798;28;1393397;-79
2022/07/23 07:37:59;;;;;;;0.40;0.20;;;;;;;19.64;100.00;101942.66;10490407;28;20058;-79
2022/07/23 07:43:03;;;;;;;0.28;0.10;;;;;;;19.52;100.00;101937.41;10497358;28;20857;-80
2022/07/23 07:48:05;;;;;;;0.05;0.05;;;;;;;20.02;100.00;101953.31;10473726;28;20074;-80
2022/07/23 07:53:07;;;;;;;0.10;0.10;;;;;;;18.86;100.00;101932.59;10493821;28;20075;-80
2022/07/23 07:58:10;;;;;;;0.10;0.10;;;;;;;20.06;100.00;101947.25;10478717;28;20086;-80
2022/07/23 08:03:11;;;;;;;0.10;0.10;;;;;;;20.08;100.00;101945.47;10500732;28;20036;-78
2022/07/23 08:08:14;;;;;;;0.20;0.10;;;;;;;20.51;100.00;101945.59;10501779;28;20074;-79
2022/07/23 08:13:16;;;;;;;0.10;0.10;;;;;;;20.83;100.00;101931.66;10479876;28;20041;-79
2022/07/23 08:18:20;;;;;;;0.13;0.13;;;;;;;20.94;100.00;101936.00;10492905;28;20059;-79
2022/07/23 08:23:22;;;;;;;0.00;0.00;;;;;;;20.64;100.00;101943.81;10491561;28;20047;-79
2022/07/23 08:28:32;;;;;;;0.08;0.03;;;;;;;21.42;100.00;101944.66;10485165;28;20123;-79
2022/07/23 08:33:34;;;;;;;0.20;0.20;;;;;;;21.82;98.00;101944.53;10481725;28;20064;-79
2022/07/23 08:38:36;;;;;;;1.65;0.43;;;;;;;21.71;96.56;101954.19;10479188;28;20484;-79
2022/07/23 08:43:38;;;;;;;0.00;0.00;;;;;;;21.28;94.68;101959.53;10481876;28;20040;-78
2022/07/23 08:48:42;;;;;;;0.00;0.00;;;;;;;21.70;99.13;101949.84;10480403;28;20049;-79
2022/07/23 08:53:46;;;;;;;0.73;0.45;;;;;;;22.21;100.00;101957.47;10475684;28;20044;-79
2022/07/23 08:58:48;;;;;;;0.00;0.00;;;;;;;21.59;91.86;101949.00;10490025;28;20048;-79
2022/07/23 09:03:50;;;;;;;0.08;0.08;;;;;;;22.14;99.47;101954.00;10460105;28;20495;-79
2022/07/23 09:08:51;;;;;;;0.00;0.00;;;;;;;22.20;91.86;101953.09;10482173;28;20045;-80
2022/07/23 09:13:54;;;;;;;0.22;0.08;;;;;;;22.40;95.11;101957.38;10488181;28;20047;-80
2022/07/23 09:19:01;;;;;;;0.30;0.20;;;;;;;20.86;91.90;101960.47;10484619;28;20049;-79
2022/07/23 09:24:11;;;;;;;0.30;0.20;;;;;;;22.54;91.76;101958.16;10489377;28;20091;-79
2022/07/23 09:29:22;;;;;;;0.00;0.00;;;;;;;21.91;90.99;101959.34;10490436;28;20044;-79
2022/07/23 09:34:27;;;;;;;0.30;0.28;;;;;;;22.25;89.45;101958.31;10490607;28;20049;-79
2022/07/23 09:39:31;;;;;;;0.00;0.00;;;;;;;22.82;87.93;101936.91;10498787;28;20060;-79
2022/07/23 09:44:41;;;;;;;0.00;0.00;;;;;;;22.93;87.61;101948.22;10487519;28;20071;-79
2022/07/23 09:50:08;;;;;;;0.10;0.10;;;;;;;22.94;90.75;101951.69;10484611;28;20075;-79
2022/07/23 09:55:11;;;;;;;0.73;0.38;;;;;;;23.23;82.79;101955.81;10490327;28;20093;-79
2022/07/23 10:00:13;;;;;;;0.10;0.00;;;;;;;22.58;85.38;101962.50;10464178;28;20094;-78
2022/07/23 10:05:15;;;;;;;0.10;0.10;;;;;;;23.20;85.93;101951.47;10489053;28;20052;-79
2022/07/23 10:10:41;;;;;;;0.10;0.10;;;;;;;22.76;86.56;101958.84;10451217;28;20517;-79
2022/07/23 10:16:07;;;;;;;0.00;0.00;;;;;;;22.49;78.25;101955.56;10473960;28;20048;-79
2022/07/23 10:21:18;;;;;;;0.10;0.10;;;;;;;23.48;77.18;101945.06;10479997;28;20047;-79
2022/07/23 10:26:29;;;;;;;0.10;0.10;;;;;;;23.60;84.80;101944.91;10487865;28;20391;-80
2022/07/23 10:31:58;;;;;;;0.32;0.28;;;;;;;23.63;85.68;101944.88;10464776;28;20029;-79
2022/07/23 10:37:22;;;;;;;0.03;0.03;;;;;;;23.41;89.81;101938.97;10478908;28;20049;-79
2022/07/23 10:42:34;;;;;;;0.25;0.20;;;;;;;24.26;82.05;101932.63;10498599;28;20049;-79
2022/07/23 10:47:42;;;;;;;0.40;0.28;;;;;;;24.19;81.63;101933.63;10486119;28;20041;-80
2022/07/23 10:53:06;;;;;;;0.50;0.40;;;;;;;23.91;75.84;101933.97;10480998;28;20047;-79
2022/07/23 10:58:07;;;;;;;0.00;0.00;;;;;;;23.46;80.19;101926.63;10484735;28;20500;-79
2022/07/23 11:03:55;;;;;;;0.00;0.00;;;;;;;23.41;83.39;101929.34;10490810;28;20086;-79
2022/07/23 11:09:26;;;;;;;0.00;0.00;;;;;;;24.10;88.34;101939.00;10451299;28;20110;-79
2022/07/23 11:15:02;;;;;;;0.90;0.63;;;;;;;23.82;84.56;101935.00;10488356;28;20044;-79
2022/07/23 11:20:09;;;;;;;0.20;0.10;;;;;;;23.87;80.84;101937.53;10483816;28;20106;-79
2022/07/23 11:25:21;;;;;;;0.08;0.08;;;;;;;23.79;78.82;101939.41;10484208;28;20048;-80
2022/07/23 11:30:47;;;;;;;0.10;0.00;;;;;;;24.16;78.12;101944.22;10499666;28;20375;-79
2022/07/23 11:36:01;;;;;;;0.10;0.10;;;;;;;23.64;80.58;101938.72;10503602;28;20075;-80
2022/07/23 11:41:02;;;;;;;0.10;0.10;;;;;;;23.58;85.56;101942.28;10493515;28;20396;-79
2022/07/23 11:46:04;;;;;;;0.20;0.10;;;;;;;23.35;75.43;101934.66;10504307;28;20080;-79
2022/07/23 11:51:07;;;;;;;0.00;0.00;;;;;;;23.99;77.80;101942.69;10496515;28;20395;-80
2022/07/23 11:56:11;;;;;;;0.30;0.10;;;;;;;24.10;79.80;101939.91;10496833;28;20056;-81
2022/07/23 12:01:12;;;;;;;0.17;0.10;;;;;;;24.13;81.80;101929.31;10494115;28;20040;-79
2022/07/23 12:06:14;;;;;;;0.00;0.00;;;;;;;24.62;88.11;101930.31;10493583;28;20050;-79
2022/07/23 12:11:16;;;;;;;0.00;0.00;;;;;;;24.11;71.50;101935.50;10496773;28;20509;-80
2022/07/23 12:16:17;;;;;;;0.30;0.20;;;;;;;23.66;72.11;101930.81;10489696;28;20052;-81
2022/07/23 12:21:19;;;;;;;0.05;0.05;;;;;;;24.57;73.63;101929.53;10486914;28;20045;-81
2022/07/23 12:26:21;;;;;;;0.00;0.00;;;;;;;24.93;81.53;101932.44;10483898;28;20063;-81
2022/07/23 12:31:27;;;;;;;1.08;0.20;;;;;;;25.08;72.78;101925.16;10493216;28;20040;-81
2022/07/23 12:36:39;;;;;;;0.10;0.10;;;;;;;24.80;80.62;101930.94;10485384;28;20494;-80
2022/07/23 12:41:53;;;;;;;0.10;0.10;;;;;;;25.42;78.80;101921.91;10493860;28;20392;-81
2022/07/23 12:46:54;;;;;;;0.55;0.10;;;;;;;24.52;77.70;101931.38;10478008;28;20052;-81
2022/07/23 12:51:58;;;;;;;1.25;0.10;;;;;;;23.74;72.30;101935.06;10482321;28;20072;-81
2022/07/23 12:57:00;;;;;;;0.20;0.10;;;;;;;24.84;70.37;101924.69;10482235;28;20056;-80
2022/07/23 13:02:01;;;;;;;0.25;0.00;;;;;;;24.68;74.86;101926.72;10486846;28;20428;-80
2022/07/23 13:07:05;;;;;;;0.63;0.60;;;;;;;24.25;70.60;101933.53;10490076;28;20052;-80
2022/07/23 13:12:08;;;;;;;0.00;0.00;;;;;;;24.77;72.96;101925.69;10482648;28;20043;-80
2022/07/23 13:17:12;;;;;;;0.22;0.20;;;;;;;24.57;74.02;101926.03;10489712;28;20041;-79
2022/07/23 13:22:13;;;;;;;0.00;0.00;;;;;;;24.95;78.66;101922.75;10473437;28;20037;-80
2022/07/23 13:27:15;;;;;;;1.85;0.63;;;;;;;24.27;66.35;101910.69;10480898;28;20040;-80
2022/07/23 13:32:21;;;;;;;0.30;0.17;;;;;;;24.85;74.33;101907.97;10478583;28;20124;-79
2022/07/23 13:37:24;;;;;;;0.20;0.20;;;;;;;24.90;70.81;101903.53;10492283;28;20044;-80
2022/07/23 13:42:26;;;;;;;0.10;0.10;;;;;;;25.41;76.75;101906.97;10466165;28;20063;-80
2022/07/23 13:47:29;;;;;;;0.03;0.03;;;;;;;24.95;68.15;101904.28;10477364;28;20044;-80
2022/07/23 13:52:33;;;;;;;0.00;0.00;;;;;;;25.18;68.63;101905.63;10479591;28;20048;-80
2022/07/23 13:57:35;;;;;;;0.65;0.52;;;;;;;25.18;76.19;101897.72;10484551;28;20056;-80
2022/07/23 14:02:39;;;;;;;0.38;0.20;;;;;;;25.34;71.32;101901.78;10483559;28;20054;-80
2022/07/23 14:07:44;;;;;;;0.10;0.10;;;;;;;24.91;73.73;101899.09;10468731;28;20048;-78
2022/07/23 14:12:47;;;;;;;0.28;0.22;;;;;;;25.53;72.10;101892.66;10474800;28;20045;-80
2022/07/23 14:17:49;;;;;;;0.45;0.22;;;;;;;25.50;74.37;101893.59;10480331;28;20442;-80
2022/07/23 14:22:51;;;;;;;0.40;0.30;;;;;;;24.31;71.36;101898.34;10482223;28;20483;-80
2022/07/23 14:27:53;;;;;;;0.10;0.10;;;;;;;24.22;72.21;101891.47;10471472;28;20384;-80
2022/07/23 14:32:55;;;;;;;0.10;0.10;;;;;;;24.45;72.97;101896.34;10462849;28;20488;-80
2022/07/23 14:37:57;;;;;;;0.32;0.32;;;;;;;24.47;73.71;101891.03;10482287;28;20420;-80
2022/07/23 14:42:59;;;;;;;0.20;0.20;;;;;;;25.16;81.31;101896.88;10473562;28;20037;-80
2022/07/23 14:48:02;;;;;;;0.20;0.20;;;;;;;24.73;68.85;101895.03;10479634;28;20052;-80
2022/07/23 14:53:04;;;;;;;0.15;0.10;;;;;;;24.53;76.10;101880.44;10478386;28;20037;-80
2022/07/23 14:58:06;;;;;;;0.30;0.30;;;;;;;25.11;71.55;101883.78;10483714;28;20040;-80
2022/07/23 15:03:08;;;;;;;0.40;0.10;;;;;;;25.29;74.24;101882.53;10484623;28;20055;-80
2022/07/23 15:08:10;;;;;;;0.15;0.10;;;;;;;24.91;70.52;101885.94;10497581;28;20553;-80
2022/07/23 15:13:12;;;;;;;0.20;0.20;;;;;;;25.45;74.16;101892.81;10484404;28;20479;-80
2022/07/23 15:18:14;;;;;;;0.20;0.17;;;;;;;25.86;80.02;101877.84;10512352;28;20051;-80
2022/07/23 15:23:18;;;;;;;0.13;0.13;;;;;;;25.37;72.37;101885.03;10501018;28;20532;-80
2022/07/23 15:28:21;;;;;;;0.20;0.10;;;;;;;24.91;73.29;101881.50;10499254;28;20051;-80
2022/07/23 15:33:23;;;;;;;0.28;0.28;;;;;;;25.10;65.66;101878.53;10518261;28;20052;-80
2022/07/23 15:38:27;;;;;;;0.20;0.20;;;;;;;24.90;74.70;101873.63;10510017;28;20483;-80
2022/07/23 15:43:31;;;;;;;0.45;0.38;;;;;;;25.33;75.65;101880.69;10485911;28;20048;-80
2022/07/23 15:48:36;;;;;;;0.08;0.08;;;;;;;24.95;74.16;101867.41;10475694;28;20059;-80
2022/07/23 15:53:38;;;;;;;0.10;0.10;;;;;;;24.84;74.32;101864.06;10473587;28;20044;-79
2022/07/23 15:58:40;;;;;;;0.05;0.05;;;;;;;24.62;68.34;101871.47;10476867;28;20048;-80
2022/07/23 16:03:42;;;;;;;0.00;0.00;;;;;;;24.85;73.91;101865.81;10489263;28;20511;-79
2022/07/23 16:08:45;;;;;;;0.38;0.38;;;;;;;25.06;75.68;101863.69;10494122;28;20040;-79
2022/07/23 16:13:47;;;;;;;0.17;0.17;;;;;;;24.84;66.98;101853.53;10488635;28;20046;-79
2022/07/23 16:18:50;;;;;;;0.10;0.10;;;;;;;24.83;68.18;101851.81;10495585;28;20124;-79
2022/07/23 16:23:52;;;;;;;0.00;0.00;;;;;;;25.06;66.49;101859.28;10496896;28;20040;-79
2022/07/23 16:28:54;;;;;;;0.32;0.10;;;;;;;24.97;67.91;101854.16;10490729;28;20056;-80
2022/07/23 16:33:58;;;;;;;0.20;0.20;;;;;;;24.96;71.87;101852.44;10472426;28;20567;-79
2022/07/23 16:39:01;;;;;;;0.00;0.00;;;;;;;25.21;67.07;101857.22;10505418;28;20512;-80
2022/07/23 16:44:07;;;;;;;0.57;0.57;;;;;;;25.24;70.03;101852.75;10496436;28;20459;-80
2022/07/23 16:49:09;;;;;;;0.10;0.10;;;;;;;24.89;69.68;101849.06;10491982;28;20064;-80
2022/07/23 16:54:11;;;;;;;0.10;0.10;;;;;;;25.09;70.52;101853.06;10495786;28;20123;-80
2022/07/23 16:59:13;;;;;;;0.30;0.20;;;;;;;24.93;70.53;101848.09;10474648;28;20048;-80
2022/07/23 17:04:15;;;;;;;0.00;0.00;;;;;;;24.67;69.53;101856.50;10485888;28;20389;-79
2022/07/23 17:09:17;;;;;;;0.00;0.00;;;;;;;24.60;74.27;101860.97;10469138;28;20286;-79
2022/07/23 17:14:19;;;;;;;0.20;0.20;;;;;;;24.20;71.02;101866.91;10481235;28;20106;-79
2022/07/23 17:19:21;;;;;;;0.55;0.28;;;;;;;24.11;71.09;101861.78;10491785;28;20060;-79
2022/07/23 17:24:23;;;;;;;0.90;0.73;;;;;;;23.90;76.58;101862.03;10494149;28;20399;-80
2022/07/23 17:29:27;;;;;;;0.03;0.03;;;;;;;24.00;79.56;101854.94;10484358;28;20044;-79
2022/07/23 17:34:29;;;;;;;0.10;0.10;;;;;;;23.90;78.48;101855.91;10468733;28;20095;-78
2022/07/23 17:39:30;;;;;;;0.20;0.20;;;;;;;23.84;75.06;101848.13;10484796;28;20048;-78
2022/07/23 17:44:32;;;;;;;0.10;0.10;;;;;;;24.15;81.41;101845.91;10485300;28;20048;-78
2022/07/23 17:49:34;;;;;;;0.30;0.20;;;;;;;24.13;78.68;101854.72;10484664;28;20204;-79
2022/07/23 17:54:36;;;;;;;0.10;0.10;;;;;;;23.81;75.42;101853.41;10485686;28;20032;-78
2022/07/23 17:59:38;;;;;;;0.20;0.20;;;;;;;23.67;79.34;101851.84;10485168;28;20052;-78
2022/07/23 18:04:39;;;;;;;0.55;0.17;;;;;;;23.49;78.03;101852.13;10468672;28;20132;-77
2022/07/23 18:09:42;;;;;;;0.20;0.20;;;;;;;23.36;79.18;101860.16;10485613;28;20059;-78
2022/07/23 18:14:43;;;;;;;0.13;0.13;;;;;;;23.25;84.28;101869.94;10492625;28;20106;-79
2022/07/23 18:19:47;;;;;;;0.03;0.03;;;;;;;23.19;77.19;101870.00;10485731;28;20646;-78
2022/07/23 18:24:49;;;;;;;0.05;0.05;;;;;;;23.17;80.67;101877.00;10492907;28;20083;-78
2022/07/23 18:29:50;;;;;;;0.20;0.10;;;;;;;23.01;91.10;101871.06;10489015;28;20041;-78
2022/07/23 18:34:52;;;;;;;1.02;0.20;;;;;;;22.79;93.11;101877.41;10477769;28;20402;-78
2022/07/23 18:39:54;;;;;;;0.22;0.10;;;;;;;22.86;89.85;101877.31;10492288;28;20053;-78
2022/07/23 18:44:56;;;;;;;0.38;0.20;;;;;;;22.41;99.67;101881.22;10490402;28;20052;-78
2022/07/23 18:49:57;;;;;;;0.10;0.10;;;;;;;22.33;100.00;101888.25;10481225;28;20072;-78
2022/07/23 18:54:59;;;;;;;0.08;0.00;;;;;;;22.44;95.48;101883.84;10495728;28;20475;-78
2022/07/23 19:00:02;;;;;;;0.28;0.10;;;;;;;22.37;100.00;101884.75;10499751;28;20419;-79
2022/07/23 19:05:05;;;;;;;0.25;0.00;;;;;;;22.16;100.00;101897.13;10495867;28;20054;-78
2022/07/23 19:10:08;;;;;;;0.30;0.30;;;;;;;22.05;99.45;101893.72;10479219;28;20403;-78
2022/07/23 19:15:10;;;;;;;0.30;0.20;;;;;;;21.73;100.00;101889.50;10490184;28;20044;-78
2022/07/23 19:20:13;;;;;;;0.00;0.00;;;;;;;21.58;100.00;101889.56;10490609;28;20428;-78
2022/07/23 19:25:15;;;;;;;0.20;0.20;;;;;;;21.04;100.00;101893.19;10485431;28;20037;-78
2022/07/23 19:30:17;;;;;;;0.20;0.10;;;;;;;20.78;100.00;101901.97;10493364;28;20045;-78
2022/07/23 19:35:19;;;;;;;0.30;0.30;;;;;;;20.64;100.00;101898.47;10498438;28;20044;-78
2022/07/23 19:40:21;;;;;;;0.30;0.30;;;;;;;20.34;100.00;101902.81;10496196;28;20553;-79
2022/07/23 19:45:23;;;;;;;0.22;0.20;;;;;;;20.04;100.00;101909.72;10498719;28;20040;-78
2022/07/23 19:50:25;;;;;;;0.00;0.00;;;;;;;19.88;100.00;101916.66;10497395;28;20052;-78
2022/07/23 19:55:26;;;;;;;1.95;0.20;;;;;;;19.72;100.00;101918.31;10491347;28;20044;-78
2022/07/23 20:00:28;;;;;;;0.00;0.00;;;;;;;19.77;100.00;101919.22;10485316;28;20059;-78
2022/07/23 20:05:30;;;;;;;0.13;0.13;;;;;;;19.76;100.00;101925.31;10472173;28;20051;-78
2022/07/23 20:10:32;;;;;;;0.25;0.10;;;;;;;19.42;100.00;101926.03;10488644;28;20110;-78
2022/07/23 20:15:34;;;;;;;0.10;0.10;;;;;;;19.23;100.00;101930.28;10478985;28;20055;-77
2022/07/23 20:20:36;;;;;;;0.30;0.15;;;;;;;19.07;100.00;101944.09;10471843;28;20079;-78
2022/07/23 20:25:40;;;;;;;0.05;0.00;;;;;;;18.90;100.00;101947.41;10489411;28;20094;-78
2022/07/23 20:30:45;;;;;;;0.30;0.30;;;;;;;18.71;100.00;101957.69;10496708;28;20051;-78
2022/07/23 20:35:47;;;;;;;0.10;0.10;;;;;;;18.47;100.00;101958.31;10496772;28;20139;-78
2022/07/23 20:40:48;;;;;;;0.20;0.20;;;;;;;18.41;100.00;101967.84;10494862;28;20048;-78
2022/07/23 20:45:50;;;;;;;0.17;0.15;;;;;;;18.43;100.00;101951.34;10495897;28;20040;-78
2022/07/23 20:50:52;;;;;;;0.20;0.15;;;;;;;18.38;100.00;101961.72;10495059;28;20052;-78
2022/07/23 20:55:55;;;;;;;0.52;0.30;;;;;;;18.18;100.00;101971.94;10477091;28;20484;-78
2022/07/23 21:00:57;;;;;;;0.10;0.10;;;;;;;18.02;100.00;101970.03;10466821;28;20048;-78
2022/07/23 21:05:58;;;;;;;0.32;0.25;;;;;;;17.98;100.00;101969.13;10495589;28;20118;-78
2022/07/23 21:11:00;;;;;;;0.93;0.50;;;;;;;17.52;100.00;101974.56;10475752;28;20040;-78
2022/07/23 21:16:04;;;;;;;0.65;0.32;;;;;;;17.60;100.00;101966.84;10470953;28;20492;-78
2022/07/23 21:21:08;;;;;;;0.30;0.20;;;;;;;17.57;100.00;101966.81;10480338;28;20487;-78
2022/07/23 21:26:11;;;;;;;0.65;0.32;;;;;;;17.59;100.00;101962.50;10490863;28;20514;-78
2022/07/23 21:31:33;;;;;;;0.20;0.17;;;;;;;17.63;100.00;101961.66;10456984;28;20050;-78
2022/07/23 21:36:35;;;;;;;0.20;0.20;;;;;;;17.55;100.00;101973.72;10492141;28;20033;-78
2022/07/23 21:41:37;;;;;;;0.43;0.30;;;;;;;17.42;100.00;101968.34;10481099;28;20049;-77
2022/07/23 21:46:38;;;;;;;0.38;0.32;;;;;;;17.38;100.00;101958.75;10490342;28;20036;-78
2022/07/23 21:51:44;;;;;;;0.70;0.20;;;;;;;17.18;100.00;101974.06;10488191;28;20136;-77
2022/07/23 21:56:46;;;;;;;0.40;0.30;;;;;;;17.26;100.00;101961.13;10482869;28;20124;-78
2022/07/23 22:01:48;;;;;;;0.43;0.28;;;;;;;17.16;100.00;101969.69;10500679;28;20055;-77
2022/07/23 22:06:50;;;;;;;0.65;0.63;;;;;;;17.34;100.00;101964.75;10500751;28;20043;-78
2022/07/23 22:11:52;;;;;;;0.50;0.50;;;;;;;17.21;100.00;101971.47;10499665;28;20075;-77
2022/07/23 22:16:53;;;;;;;0.10;0.10;;;;;;;17.10;100.00;101971.31;10495996;28;20040;-78
2022/07/23 22:21:55;;;;;;;0.47;0.30;;;;;;;17.18;100.00;101967.97;10481120;28;20045;-77
2022/07/23 22:26:57;;;;;;;0.75;0.20;;;;;;;16.95;100.00;101981.47;10500648;28;20105;-77
2022/07/23 22:31:59;;;;;;;0.95;0.40;;;;;;;16.70;100.00;101981.03;10514731;28;20165;-77
2022/07/23 22:37:00;;;;;;;0.85;0.50;;;;;;;16.64;100.00;101975.75;10528911;28;20044;-78
2022/07/23 22:42:03;;;;;;;0.40;0.13;;;;;;;16.63;100.00;101972.25;10501109;28;20055;-77
2022/07/23 22:47:05;;;;;;;0.52;0.30;;;;;;;16.60;100.00;101974.81;10518079;28;20048;-77
2022/07/23 22:52:06;;;;;;;0.43;0.20;;;;;;;16.72;100.00;101974.13;10492003;28;20450;-78
2022/07/23 22:57:11;;;;;;;1.50;0.70;;;;;;;16.87;100.00;101962.22;10487090;28;20051;-77
2022/07/23 23:02:13;;;;;;;0.13;0.10;;;;;;;16.64;100.00;101963.59;10472425;28;20080;-77
2022/07/23 23:07:15;;;;;;;0.47;0.20;;;;;;;16.71;100.00;101961.09;10492975;28;20388;-77